createdAt,value
2022-08-25T00:00:53.868Z,59.14
2022-08-25T00:01:53.819Z,55.75
2022-08-25T00:02:56.467Z,56.07
2022-08-25T00:03:53.841Z,58.17
2022-08-25T00:04:54.013Z,63.49
2022-08-25T00:05:53.839Z,56.24
2022-08-25T00:06:53.844Z,58.33
2022-08-25T00:07:53.770Z,58.49
2022-08-25T00:08:53.891Z,66.39
2022-08-25T00:09:53.763Z,58.49
2022-08-25T00:11:03.041Z,56.72
2022-08-25T00:11:53.748Z,59.78
2022-08-25T00:12:53.724Z,59.14
2022-08-25T00:13:53.774Z,59.94
2022-08-25T00:14:53.694Z,58.97
2022-08-25T00:15:53.696Z,58.33
2022-08-25T00:16:53.690Z,58.65
2022-08-25T00:17:53.742Z,54.79
2022-08-25T00:18:53.621Z,58.81
2022-08-25T00:19:53.624Z,58.01
2022-08-25T00:20:53.615Z,59.30
2022-08-25T00:21:53.614Z,59.30
2022-08-25T00:22:53.592Z,62.04
2022-08-25T00:23:53.569Z,58.33
2022-08-25T00:24:53.555Z,60.10
2022-08-25T00:25:53.541Z,60.42
2022-08-25T00:26:53.555Z,59.94
2022-08-25T00:27:53.513Z,57.85
2022-08-25T00:28:54.210Z,57.85
2022-08-25T00:29:53.488Z,60.59
2022-08-25T00:30:53.519Z,56.56
2022-08-25T00:31:53.487Z,58.01
2022-08-25T00:32:57.373Z,60.26
2022-08-25T00:33:53.440Z,55.75
2022-08-25T00:34:53.431Z,56.56
2022-08-25T00:35:53.431Z,59.78
2022-08-25T00:36:53.432Z,59.78
2022-08-25T00:37:53.390Z,59.46
2022-08-25T00:38:53.372Z,59.62
2022-08-25T00:39:53.387Z,59.94
2022-08-25T00:40:53.366Z,58.49
2022-08-25T00:41:53.384Z,57.85
2022-08-25T00:42:53.337Z,58.81
2022-08-25T00:43:53.314Z,59.94
2022-08-25T00:44:53.297Z,59.14
2022-08-25T00:45:53.332Z,59.46
2022-08-25T00:46:53.330Z,59.14
2022-08-25T00:47:53.265Z,58.65
2022-08-25T00:48:53.260Z,60.75
2022-08-25T00:49:53.245Z,59.14
2022-08-25T00:50:53.234Z,57.20
2022-08-25T00:51:53.240Z,62.20
2022-08-25T00:52:53.222Z,61.07
2022-08-25T00:53:53.188Z,57.85
2022-08-25T00:54:53.320Z,60.42
2022-08-25T00:55:53.189Z,61.07
2022-08-25T00:56:53.161Z,62.20
2022-08-25T00:57:53.212Z,59.94
2022-08-25T00:58:53.123Z,59.62
2022-08-25T00:59:53.140Z,62.84
2022-08-25T01:00:53.146Z,60.42
2022-08-25T01:01:53.917Z,60.10
2022-08-25T01:02:53.193Z,61.55
2022-08-25T01:03:53.588Z,62.04
2022-08-25T01:04:53.048Z,60.91
2022-08-25T01:05:53.723Z,61.23
2022-08-25T01:06:53.033Z,60.59
2022-08-25T01:07:53.077Z,59.46
2022-08-25T01:08:53.024Z,61.55
2022-08-25T01:09:52.995Z,61.07
2022-08-25T01:10:52.984Z,61.07
2022-08-25T01:11:53.049Z,60.91
2022-08-25T01:12:53.452Z,59.30
2022-08-25T01:13:52.952Z,61.55
2022-08-25T01:14:52.942Z,61.87
2022-08-25T01:15:52.954Z,62.04
2022-08-25T01:16:54.040Z,63.00
2022-08-25T01:17:52.902Z,62.68
2022-08-25T01:18:52.875Z,63.97
2022-08-25T01:19:52.869Z,64.13
2022-08-25T01:20:52.853Z,64.45
2022-08-25T01:21:52.919Z,60.42
2022-08-25T01:22:55.242Z,64.29
2022-08-25T01:23:52.840Z,58.33
2022-08-25T01:24:52.808Z,60.75
2022-08-25T01:25:52.795Z,63.16
2022-08-25T01:26:52.781Z,62.52
2022-08-25T01:27:52.809Z,63.97
2022-08-25T01:28:52.995Z,60.42
2022-08-25T01:29:52.734Z,59.14
2022-08-25T01:30:52.813Z,61.55
2022-08-25T01:31:52.709Z,62.36
2022-08-25T01:32:52.716Z,62.36
2022-08-25T01:33:52.740Z,62.36
2022-08-25T01:34:52.689Z,58.81
2022-08-25T01:35:52.704Z,60.91
2022-08-25T01:36:52.667Z,57.85
2022-08-25T01:37:52.644Z,64.94
2022-08-25T01:38:52.686Z,62.68
2022-08-25T01:39:52.726Z,63.00
2022-08-25T01:40:52.631Z,60.42
2022-08-25T01:41:53.604Z,62.36
2022-08-25T01:42:52.624Z,62.20
2022-08-25T01:43:52.603Z,62.04
2022-08-25T01:44:52.572Z,61.55
2022-08-25T01:45:52.642Z,59.46
2022-08-25T01:46:52.543Z,60.10
2022-08-25T01:47:52.535Z,58.01
2022-08-25T01:48:52.556Z,61.23
2022-08-25T01:49:52.551Z,62.20
2022-08-25T01:50:52.548Z,58.65
2022-08-25T01:51:52.508Z,59.62
2022-08-25T01:52:52.465Z,61.39
2022-08-25T01:53:52.514Z,59.78
2022-08-25T01:54:52.483Z,57.69
2022-08-25T01:55:52.437Z,57.69
2022-08-25T01:56:52.456Z,58.81
2022-08-25T01:57:52.401Z,59.14
2022-08-25T01:58:53.222Z,61.23
2022-08-25T01:59:52.415Z,60.91
2022-08-25T02:00:52.401Z,60.59
2022-08-25T02:01:59.910Z,60.75
2022-08-25T02:02:54.304Z,61.39
2022-08-25T02:03:52.328Z,61.23
2022-08-25T02:04:52.358Z,61.07
2022-08-25T02:05:52.344Z,57.52
2022-08-25T02:06:52.305Z,58.33
2022-08-25T02:07:53.089Z,59.78
2022-08-25T02:08:52.293Z,59.30
2022-08-25T02:09:52.292Z,59.94
2022-08-25T02:10:52.288Z,61.71
2022-08-25T02:11:52.246Z,60.59
2022-08-25T02:12:54.358Z,60.42
2022-08-25T02:13:52.225Z,61.39
2022-08-25T02:14:52.223Z,61.71
2022-08-25T02:15:52.210Z,61.23
2022-08-25T02:16:52.245Z,60.75
2022-08-25T02:17:52.156Z,58.81
2022-08-25T02:18:53.164Z,60.91
2022-08-25T02:19:52.212Z,60.42
2022-08-25T02:20:52.153Z,62.52
2022-08-25T02:21:52.126Z,60.91
2022-08-25T02:22:56.939Z,63.97
2022-08-25T02:23:52.123Z,62.20
2022-08-25T02:24:52.146Z,63.49
2022-08-25T02:25:52.089Z,59.78
2022-08-25T02:26:52.069Z,63.65
2022-08-25T02:27:52.057Z,60.10
2022-08-25T02:28:52.054Z,62.36
2022-08-25T02:29:52.090Z,61.87
2022-08-25T02:30:52.031Z,60.91
2022-08-25T02:31:52.012Z,61.39
2022-08-25T02:32:52.018Z,60.42
2022-08-25T02:33:51.985Z,62.84
2022-08-25T02:34:52.017Z,64.29
2022-08-25T02:35:51.962Z,59.46
2022-08-25T02:36:51.961Z,60.59
2022-08-25T02:37:51.934Z,61.23
2022-08-25T02:38:51.929Z,59.94
2022-08-25T02:39:51.966Z,61.87
2022-08-25T02:40:51.935Z,60.10
2022-08-25T02:41:51.888Z,60.42
2022-08-25T02:42:51.910Z,61.71
2022-08-25T02:43:51.867Z,58.17
2022-08-25T02:44:51.857Z,61.07
2022-08-25T02:45:51.962Z,61.55
2022-08-25T02:46:51.856Z,58.65
2022-08-25T02:47:51.826Z,57.85
2022-08-25T02:48:51.804Z,59.30
2022-08-25T02:49:51.831Z,59.94
2022-08-25T02:50:51.802Z,62.68
2022-08-25T02:51:51.806Z,62.84
2022-08-25T02:52:51.768Z,59.78
2022-08-25T02:53:51.761Z,60.75
2022-08-25T02:54:51.745Z,60.10
2022-08-25T02:55:51.737Z,59.94
2022-08-25T02:56:51.773Z,61.07
2022-08-25T02:57:51.708Z,60.91
2022-08-25T02:58:51.692Z,62.84
2022-08-25T02:59:51.671Z,61.87
2022-08-25T03:00:51.751Z,61.87
2022-08-25T03:01:51.664Z,61.07
2022-08-25T03:02:51.694Z,60.42
2022-08-25T03:03:51.689Z,61.07
2022-08-25T03:04:51.666Z,63.33
2022-08-25T03:05:51.638Z,63.16
2022-08-25T03:06:51.577Z,61.23
2022-08-25T03:07:51.563Z,60.59
2022-08-25T03:08:51.574Z,60.75
2022-08-25T03:09:51.568Z,58.01
2022-08-25T03:10:52.048Z,61.23
2022-08-25T03:11:51.556Z,61.87
2022-08-25T03:12:51.525Z,63.81
2022-08-25T03:13:51.511Z,62.36
2022-08-25T03:14:51.491Z,63.97
2022-08-25T03:15:51.477Z,64.61
2022-08-25T03:16:51.539Z,64.13
2022-08-25T03:17:51.470Z,63.81
2022-08-25T03:18:51.439Z,65.74
2022-08-25T03:19:51.428Z,66.55
2022-08-25T03:20:51.424Z,64.61
2022-08-25T03:21:51.429Z,62.84
2022-08-25T03:22:51.386Z,64.78
2022-08-25T03:23:52.403Z,63.49
2022-08-25T03:24:51.381Z,65.10
2022-08-25T03:25:51.358Z,63.00
2022-08-25T03:26:51.379Z,63.81
2022-08-25T03:27:51.366Z,65.90
2022-08-25T03:28:51.330Z,63.33
2022-08-25T03:29:51.327Z,64.13
2022-08-25T03:30:54.658Z,64.29
2022-08-25T03:31:51.369Z,65.74
2022-08-25T03:32:51.307Z,64.29
2022-08-25T03:33:51.272Z,65.26
2022-08-25T03:34:52.277Z,66.71
2022-08-25T03:35:51.260Z,66.06
2022-08-25T03:36:51.273Z,66.23
2022-08-25T03:37:52.271Z,64.78
2022-08-25T03:38:51.232Z,65.90
2022-08-25T03:39:51.271Z,65.58
2022-08-25T03:40:51.200Z,66.55
2022-08-25T03:41:51.274Z,66.71
2022-08-25T03:42:51.175Z,65.74
2022-08-25T03:43:51.202Z,64.78
2022-08-25T03:44:51.156Z,65.90
2022-08-25T03:45:51.219Z,66.87
2022-08-25T03:46:51.169Z,64.78
2022-08-25T03:47:51.134Z,63.49
2022-08-25T03:48:51.124Z,64.45
2022-08-25T03:49:51.131Z,63.97
2022-08-25T03:50:51.970Z,66.23
2022-08-25T03:51:51.097Z,65.90
2022-08-25T03:52:51.106Z,64.78
2022-08-25T03:53:51.083Z,64.78
2022-08-25T03:54:51.045Z,66.06
2022-08-25T03:55:51.026Z,66.06
2022-08-25T03:56:51.054Z,64.78
2022-08-25T03:57:51.355Z,65.26
2022-08-25T03:58:50.992Z,67.51
2022-08-25T03:59:51.005Z,69.61
2022-08-25T04:00:51.033Z,67.03
2022-08-25T04:01:54.836Z,65.26
2022-08-25T04:02:56.776Z,67.51
2022-08-25T04:03:51.940Z,62.84
2022-08-25T04:04:50.930Z,64.13
2022-08-25T04:05:50.932Z,64.45
2022-08-25T04:06:51.206Z,65.10
2022-08-25T04:07:50.937Z,64.78
2022-08-25T04:08:50.907Z,64.94
2022-08-25T04:09:50.881Z,67.68
2022-08-25T04:10:50.867Z,65.10
2022-08-25T04:11:53.252Z,65.90
2022-08-25T04:12:50.875Z,67.84
2022-08-25T04:13:50.835Z,66.55
2022-08-25T04:14:50.844Z,64.94
2022-08-25T04:15:50.814Z,66.55
2022-08-25T04:16:50.882Z,67.84
2022-08-25T04:17:51.945Z,66.71
2022-08-25T04:18:50.801Z,67.68
2022-08-25T04:19:50.838Z,64.94
2022-08-25T04:20:50.781Z,64.13
2022-08-25T04:21:50.764Z,63.81
2022-08-25T04:22:50.761Z,63.49
2022-08-25T04:23:50.753Z,64.61
2022-08-25T04:24:50.753Z,63.81
2022-08-25T04:25:50.720Z,63.65
2022-08-25T04:26:50.722Z,63.81
2022-08-25T04:27:50.707Z,64.29
2022-08-25T04:28:50.705Z,63.65
2022-08-25T04:29:50.653Z,63.65
2022-08-25T04:30:52.163Z,64.94
2022-08-25T04:31:50.722Z,63.81
2022-08-25T04:32:50.643Z,65.90
2022-08-25T04:33:50.671Z,64.78
2022-08-25T04:34:50.627Z,64.78
2022-08-25T04:35:50.622Z,63.65
2022-08-25T04:36:52.555Z,66.39
2022-08-25T04:37:50.586Z,64.61
2022-08-25T04:38:50.627Z,63.33
2022-08-25T04:39:50.632Z,62.68
2022-08-25T04:40:50.553Z,65.10
2022-08-25T04:41:50.583Z,64.78
2022-08-25T04:42:50.542Z,63.81
2022-08-25T04:43:50.571Z,63.81
2022-08-25T04:44:50.516Z,64.78
2022-08-25T04:45:50.564Z,65.10
2022-08-25T04:46:50.490Z,63.81
2022-08-25T04:47:54.709Z,62.84
2022-08-25T04:48:50.478Z,69.13
2022-08-25T04:49:50.451Z,63.97
2022-08-25T04:50:50.463Z,62.84
2022-08-25T04:51:50.485Z,63.97
2022-08-25T04:52:51.050Z,65.58
2022-08-25T04:53:50.453Z,62.84
2022-08-25T04:54:50.434Z,64.13
2022-08-25T04:55:50.393Z,64.45
2022-08-25T04:56:50.411Z,63.81
2022-08-25T04:57:50.385Z,64.61
2022-08-25T04:58:50.405Z,61.39
2022-08-25T04:59:50.366Z,62.52
2022-08-25T05:00:50.431Z,63.97
2022-08-25T05:01:52.400Z,64.61
2022-08-25T05:02:50.333Z,65.74
2022-08-25T05:03:50.377Z,67.03
2022-08-25T05:04:50.401Z,66.23
2022-08-25T05:05:50.292Z,64.61
2022-08-25T05:06:50.290Z,63.49
2022-08-25T05:07:50.285Z,63.97
2022-08-25T05:08:50.298Z,63.49
2022-08-25T05:09:50.250Z,65.10
2022-08-25T05:10:50.254Z,64.13
2022-08-25T05:11:50.242Z,62.68
2022-08-25T05:12:50.223Z,66.06
2022-08-25T05:13:51.447Z,62.36
2022-08-25T05:14:50.236Z,63.16
2022-08-25T05:15:51.009Z,62.20
2022-08-25T05:16:50.220Z,63.00
2022-08-25T05:17:55.217Z,64.29
2022-08-25T05:18:50.196Z,62.36
2022-08-25T05:19:50.167Z,63.49
2022-08-25T05:20:50.155Z,63.97
2022-08-25T05:21:50.124Z,65.26
2022-08-25T05:22:50.145Z,64.45
2022-08-25T05:23:50.157Z,64.61
2022-08-25T05:24:50.160Z,63.16
2022-08-25T05:25:50.108Z,64.45
2022-08-25T05:26:50.578Z,64.94
2022-08-25T05:27:50.076Z,63.81
2022-08-25T05:28:50.086Z,63.97
2022-08-25T05:29:50.075Z,64.45
2022-08-25T05:30:50.034Z,63.49
2022-08-25T05:31:50.940Z,64.45
2022-08-25T05:32:50.041Z,64.29
2022-08-25T05:33:50.021Z,65.74
2022-08-25T05:34:49.992Z,65.10
2022-08-25T05:35:50.004Z,63.33
2022-08-25T05:36:49.986Z,63.97
2022-08-25T05:37:49.981Z,65.10
2022-08-25T05:38:49.959Z,64.78
2022-08-25T05:39:49.997Z,64.61
2022-08-25T05:40:49.930Z,64.29
2022-08-25T05:41:49.919Z,64.13
2022-08-25T05:42:49.963Z,69.77
2022-08-25T05:43:49.928Z,65.74
2022-08-25T05:44:49.866Z,64.29
2022-08-25T05:45:49.921Z,61.71
2022-08-25T05:46:49.889Z,63.16
2022-08-25T05:47:49.830Z,62.36
2022-08-25T05:48:49.874Z,63.81
2022-08-25T05:49:49.812Z,64.94
2022-08-25T05:50:49.782Z,65.42
2022-08-25T05:51:49.778Z,63.81
2022-08-25T05:52:49.797Z,63.65
2022-08-25T05:53:49.798Z,66.23
2022-08-25T05:54:49.794Z,65.58
2022-08-25T05:55:49.736Z,63.16
2022-08-25T05:56:49.708Z,62.84
2022-08-25T05:57:49.757Z,63.16
2022-08-25T05:58:49.720Z,64.29
2022-08-25T05:59:49.690Z,62.20
2022-08-25T06:00:49.714Z,62.20
2022-08-25T06:01:49.650Z,62.84
2022-08-25T06:02:49.706Z,64.61
2022-08-25T06:03:49.687Z,64.78
2022-08-25T06:04:49.625Z,63.97
2022-08-25T06:05:50.314Z,65.10
2022-08-25T06:06:49.637Z,63.49
2022-08-25T06:07:49.577Z,66.23
2022-08-25T06:08:49.606Z,66.06
2022-08-25T06:09:49.560Z,65.42
2022-08-25T06:10:49.581Z,67.35
2022-08-25T06:11:52.931Z,65.90
2022-08-25T06:12:49.523Z,65.74
2022-08-25T06:13:49.547Z,65.74
2022-08-25T06:14:49.504Z,64.29
2022-08-25T06:15:49.490Z,64.29
2022-08-25T06:16:49.523Z,67.19
2022-08-25T06:17:49.492Z,64.78
2022-08-25T06:18:49.488Z,65.26
2022-08-25T06:19:49.485Z,66.23
2022-08-25T06:20:49.565Z,64.13
2022-08-25T06:21:49.444Z,65.10
2022-08-25T06:26:09.627Z,64.13
2022-08-25T06:27:09.462Z,64.61
2022-08-25T06:28:09.302Z,63.97
2022-08-25T06:29:09.257Z,63.16
2022-08-25T06:33:18.267Z,64.94
2022-08-25T06:34:18.162Z,63.49
2022-08-25T06:35:18.091Z,63.97
2022-08-25T06:36:18.031Z,63.81
2022-08-25T06:37:19.036Z,63.00
2022-08-25T06:38:17.972Z,63.65
2022-08-25T06:39:17.987Z,63.97
2022-08-25T06:40:17.980Z,64.61
2022-08-25T06:41:17.952Z,63.97
2022-08-25T06:42:17.929Z,64.78
2022-08-25T06:43:17.921Z,63.81
2022-08-25T06:44:17.927Z,64.94
2022-08-25T06:45:17.936Z,63.33
2022-08-25T06:46:17.952Z,61.87
2022-08-25T06:47:17.941Z,62.68
2022-08-25T06:48:17.865Z,64.45
2022-08-25T06:49:17.874Z,63.65
2022-08-25T06:50:17.835Z,63.81
2022-08-25T06:51:19.717Z,63.65
2022-08-25T07:00:43.556Z,61.71
2022-08-25T07:01:43.572Z,62.04
2022-08-25T07:02:43.649Z,61.87
2022-08-25T07:03:43.928Z,63.00
2022-08-25T07:04:43.298Z,64.13
2022-08-25T07:05:44.120Z,64.29
2022-08-25T07:06:43.268Z,65.10
2022-08-25T07:07:44.289Z,64.61
2022-08-25T07:08:43.245Z,63.49
2022-08-25T07:09:43.282Z,62.36
2022-08-25T07:10:48.109Z,63.16
2022-08-25T07:11:43.483Z,62.36
2022-08-25T07:12:43.395Z,62.04
2022-08-25T07:13:43.173Z,64.29
2022-08-25T07:14:57.993Z,62.68
2022-08-25T07:15:44.298Z,63.33
2022-08-25T07:16:48.709Z,62.04
2022-08-25T07:17:43.118Z,62.68
2022-08-25T07:18:43.130Z,62.84
2022-08-25T07:19:43.149Z,63.16
2022-08-25T07:20:43.092Z,61.71
2022-08-25T07:21:43.234Z,62.52
2022-08-25T07:22:43.074Z,64.45
2022-08-25T14:07:21.078Z,63.65
2022-08-25T14:08:25.875Z,64.13
2022-08-25T14:09:27.915Z,64.94
2022-08-25T14:10:20.620Z,63.81
2022-08-25T14:11:20.581Z,64.94
2022-08-25T14:12:20.608Z,66.55
2022-08-25T14:13:20.566Z,65.90
2022-08-25T14:14:20.550Z,65.90
2022-08-25T14:15:20.531Z,65.10
2022-08-25T14:16:20.557Z,63.97
2022-08-25T14:17:36.334Z,65.42
2022-08-25T14:18:20.509Z,65.26
2022-08-25T14:19:20.512Z,64.61
2022-08-25T14:20:20.459Z,62.68
2022-08-25T14:21:20.499Z,64.94
2022-08-25T14:22:20.442Z,64.29
2022-08-25T14:23:20.446Z,63.16
2022-08-25T14:24:22.589Z,64.94
2022-08-25T14:25:20.402Z,64.29
2022-08-25T14:26:20.393Z,64.61
2022-08-25T14:27:20.428Z,65.42
2022-08-25T14:28:20.747Z,65.26
2022-08-25T14:29:20.369Z,66.06
2022-08-25T14:30:28.922Z,65.26
2022-08-25T14:31:20.402Z,66.39
2022-08-25T14:32:20.350Z,68.80
2022-08-25T14:33:20.339Z,64.45
2022-08-25T14:34:20.372Z,66.39
2022-08-25T14:35:20.320Z,64.13
2022-08-25T14:36:20.917Z,65.10
2022-08-25T14:37:20.394Z,64.29
2022-08-25T14:38:20.466Z,65.58
2022-08-25T14:39:20.260Z,64.61
2022-08-25T14:40:20.450Z,65.26
2022-08-25T14:41:20.270Z,64.78
2022-08-25T14:42:20.242Z,64.94
2022-08-25T14:43:23.728Z,63.81
2022-08-25T14:44:20.225Z,66.71
2022-08-25T14:45:20.203Z,66.06
2022-08-25T14:46:20.173Z,63.81
2022-08-25T14:47:20.190Z,64.13
2022-08-25T14:48:20.210Z,63.49
2022-08-25T14:49:20.159Z,64.29
2022-08-25T14:50:20.932Z,64.94
2022-08-25T14:51:20.127Z,64.61
2022-08-25T14:52:20.119Z,65.10
2022-08-25T14:53:21.126Z,65.42
2022-08-25T14:54:20.123Z,64.45
2022-08-25T14:55:31.224Z,63.65
2022-08-25T14:56:20.055Z,63.65
2022-08-25T14:57:20.073Z,64.94
2022-08-25T14:58:25.864Z,65.74
2022-08-25T14:59:20.166Z,66.23
2022-08-25T15:00:20.808Z,65.42
2022-08-25T15:01:20.694Z,65.42
2022-08-25T15:02:20.348Z,64.94
2022-08-25T15:03:19.990Z,67.35
2022-08-25T15:04:20.116Z,66.87
2022-08-25T15:05:19.988Z,66.23
2022-08-25T15:06:20.058Z,65.90
2022-08-25T15:07:19.987Z,66.71
2022-08-25T15:08:19.924Z,63.81
2022-08-25T15:09:19.939Z,64.94
2022-08-25T15:10:21.776Z,65.58
2022-08-25T15:11:19.889Z,66.23
2022-08-25T15:12:37.346Z,65.74
2022-08-25T15:13:20.887Z,66.39
2022-08-25T15:14:28.640Z,64.29
2022-08-25T15:15:19.863Z,63.81
2022-08-25T15:16:20.827Z,63.65
2022-08-25T15:17:19.821Z,64.61
2022-08-25T15:18:19.805Z,64.94
2022-08-25T15:19:19.846Z,65.10
2022-08-25T15:20:19.773Z,64.45
2022-08-25T15:21:19.761Z,63.97
2022-08-25T15:22:19.816Z,66.71
2022-08-25T15:23:19.740Z,64.94
2022-08-25T15:24:19.776Z,64.45
2022-08-25T15:25:19.729Z,64.45
2022-08-25T15:26:19.745Z,66.87
2022-08-25T15:27:19.711Z,65.58
2022-08-25T15:28:21.863Z,65.10
2022-08-25T15:29:19.791Z,65.10
2022-08-25T15:30:19.710Z,64.78
2022-08-25T15:31:19.731Z,63.33
2022-08-25T15:32:19.682Z,63.16
2022-08-25T15:33:19.670Z,63.33
2022-08-25T15:34:19.713Z,61.23
2022-08-25T15:35:19.615Z,61.71
2022-08-25T15:36:20.769Z,60.91
2022-08-25T15:37:19.629Z,60.26
2022-08-25T15:38:19.685Z,59.78
2022-08-25T15:39:19.744Z,60.59
2022-08-25T15:40:19.608Z,63.16
2022-08-25T15:41:19.572Z,64.13
2022-08-25T15:42:19.539Z,66.55
2022-08-25T15:43:31.425Z,65.58
2022-08-25T15:44:20.574Z,64.13
2022-08-25T15:45:19.522Z,61.55
2022-08-25T15:46:19.594Z,63.16
2022-08-25T15:47:19.514Z,64.61
2022-08-25T15:48:19.458Z,65.74
2022-08-25T15:49:20.649Z,65.26
2022-08-25T15:50:21.074Z,62.52
2022-08-25T15:51:19.445Z,63.16
2022-08-25T15:52:19.449Z,66.71
2022-08-25T15:53:19.430Z,65.58
2022-08-25T15:54:19.432Z,67.03
2022-08-25T15:55:19.968Z,64.61
2022-08-25T15:56:26.917Z,64.61
2022-08-25T15:57:24.396Z,64.45
2022-08-25T15:58:19.672Z,64.13
2022-08-25T15:59:21.594Z,63.65
2022-08-25T16:00:19.325Z,63.16
2022-08-25T16:01:19.459Z,63.16
2022-08-25T16:02:19.335Z,63.81
2022-08-25T16:03:19.301Z,65.58
2022-08-25T16:04:19.298Z,64.94
2022-08-25T16:05:25.168Z,65.26
2022-08-25T16:06:19.254Z,63.00
2022-08-25T16:07:19.281Z,63.97
2022-08-25T16:08:21.923Z,65.58
2022-08-25T16:09:19.224Z,64.29
2022-08-25T16:10:19.387Z,63.97
2022-08-25T16:11:19.292Z,63.49
2022-08-25T16:12:19.185Z,64.45
2022-08-25T16:13:19.383Z,64.78
2022-08-25T16:14:19.281Z,65.58
2022-08-25T16:15:19.224Z,64.45
2022-08-25T16:16:19.255Z,64.45
2022-08-25T16:17:19.281Z,65.10
2022-08-25T16:18:19.138Z,63.00
2022-08-25T16:19:54.342Z,64.13
2022-08-25T16:20:19.556Z,62.52
2022-08-25T16:21:19.339Z,64.61
2022-08-25T16:22:19.128Z,63.49
2022-08-25T16:23:19.149Z,63.49
2022-08-25T16:24:19.067Z,63.00
2022-08-25T16:25:19.122Z,66.06
2022-08-25T16:26:19.068Z,66.06
2022-08-25T16:27:20.042Z,63.97
2022-08-25T16:28:19.075Z,63.00
2022-08-25T16:29:19.010Z,63.16
2022-08-25T16:30:19.057Z,64.45
2022-08-25T16:31:19.113Z,61.71
2022-08-25T16:32:19.015Z,61.87
2022-08-25T16:33:18.990Z,63.00
2022-08-25T16:34:19.956Z,62.84
2022-08-25T16:35:19.024Z,63.00
2022-08-25T16:36:18.972Z,62.84
2022-08-25T16:37:18.942Z,63.81
2022-08-25T16:38:19.035Z,62.20
2022-08-25T19:29:55.904Z,59.30
2022-08-25T19:30:55.980Z,62.04
2022-08-25T19:31:55.978Z,63.65
2022-08-25T19:32:55.886Z,65.42
2022-08-25T19:33:55.810Z,63.00
2022-08-25T19:34:55.813Z,62.36
2022-08-25T19:35:55.773Z,63.65
2022-08-25T19:36:55.774Z,59.78
2022-08-25T19:37:55.749Z,62.68
2022-08-25T19:38:55.776Z,60.10
2022-08-25T19:39:55.801Z,60.59
2022-08-25T19:40:55.721Z,61.71
2022-08-25T19:41:55.697Z,63.16
2022-08-25T19:42:56.840Z,62.20
2022-08-25T19:43:57.637Z,61.39
2022-08-25T19:44:56.847Z,61.23
2022-08-25T19:45:56.799Z,61.55
2022-08-25T19:46:57.162Z,61.07
2022-08-25T19:47:56.761Z,62.36
2022-08-25T19:48:56.752Z,63.97
2022-08-25T19:49:56.738Z,64.13
2022-08-25T19:50:56.745Z,59.94
2022-08-25T19:51:56.717Z,62.84
2022-08-25T19:52:56.695Z,61.55
2022-08-25T19:53:59.986Z,63.16
2022-08-25T19:54:57.714Z,61.55
2022-08-25T19:55:56.714Z,63.16
2022-08-25T19:56:56.673Z,57.20
2022-08-25T19:57:56.652Z,62.68
2022-08-25T19:58:56.632Z,62.20
2022-08-25T19:59:56.645Z,58.49
2022-08-25T20:00:56.863Z,59.62
2022-08-25T20:01:56.617Z,57.04
2022-08-25T20:02:56.656Z,59.46
2022-08-25T20:03:56.964Z,60.42
2022-08-25T20:04:56.553Z,61.39
2022-08-25T20:05:56.550Z,62.68
2022-08-25T20:06:57.521Z,59.14
2022-08-25T20:07:56.517Z,62.68
2022-08-25T20:09:00.522Z,61.87
2022-08-25T20:09:56.513Z,65.10
2022-08-25T20:10:56.544Z,60.10
2022-08-25T20:11:56.492Z,62.84
2022-08-25T20:12:56.464Z,59.14
2022-08-25T20:13:59.247Z,59.78
2022-08-25T20:14:57.473Z,62.36
2022-08-25T20:15:57.642Z,60.10
2022-08-25T20:16:56.526Z,62.20
2022-08-25T20:17:56.872Z,60.26
2022-08-25T20:18:56.404Z,61.87
2022-08-25T20:19:56.487Z,60.59
2022-08-25T20:20:56.419Z,58.33
2022-08-25T20:21:56.462Z,59.46
2022-08-25T20:22:56.399Z,59.30
2022-08-25T20:23:56.366Z,59.78
2022-08-25T20:24:57.922Z,57.85
2022-08-25T20:25:56.376Z,57.85
2022-08-25T20:26:56.332Z,60.10
2022-08-25T20:27:56.347Z,59.78
2022-08-25T20:28:56.305Z,61.07
2022-08-25T20:29:56.302Z,58.81
2022-08-25T20:30:56.330Z,58.17
2022-08-25T20:31:56.253Z,58.01
2022-08-25T20:32:56.278Z,57.85
2022-08-25T20:33:59.901Z,61.07
2022-08-25T20:34:57.259Z,60.26
2022-08-25T20:35:56.232Z,58.97
2022-08-25T20:36:56.232Z,59.62
2022-08-25T20:37:56.186Z,59.46
2022-08-25T20:38:56.182Z,60.59
2022-08-25T20:39:57.170Z,58.01
2022-08-25T20:40:56.155Z,61.71
2022-08-25T20:41:56.158Z,59.62
2022-08-25T20:42:56.144Z,59.94
2022-08-25T20:43:56.125Z,59.78
2022-08-25T20:44:56.225Z,60.42
2022-08-25T20:45:56.090Z,61.23
2022-08-25T20:46:56.072Z,60.26
2022-08-25T20:47:56.047Z,59.62
2022-08-25T20:48:56.054Z,60.42
2022-08-25T20:49:56.002Z,60.26
2022-08-25T20:50:57.559Z,59.94
2022-08-25T20:51:56.009Z,58.65
2022-08-25T20:52:56.011Z,61.87
2022-08-25T20:53:55.964Z,57.69
2022-08-25T20:54:55.969Z,59.62
2022-08-25T20:55:55.950Z,57.20
2022-08-25T20:56:55.955Z,58.97
2022-08-25T20:57:55.911Z,58.33
2022-08-25T20:58:55.921Z,54.95
2022-08-25T20:59:55.899Z,57.69
2022-08-25T21:00:55.885Z,57.85
2022-08-25T21:01:55.953Z,56.40
2022-08-25T21:02:55.884Z,57.85
2022-08-25T21:03:55.878Z,56.72
2022-08-25T21:04:57.084Z,56.40
2022-08-25T21:05:55.827Z,56.72
2022-08-25T21:06:55.886Z,57.85
2022-08-25T21:07:55.788Z,58.49
2022-08-25T21:08:55.793Z,57.69
2022-08-25T21:09:55.781Z,57.36
2022-08-25T21:10:55.767Z,58.81
2022-08-25T21:11:56.184Z,55.43
2022-08-25T21:12:55.749Z,56.56
2022-08-25T21:13:55.757Z,53.82
2022-08-25T21:14:55.701Z,57.85
2022-08-25T21:15:55.713Z,59.78
2022-08-25T21:16:55.726Z,57.20
2022-08-25T21:17:55.697Z,55.27
2022-08-25T21:18:55.665Z,55.91
2022-08-25T21:19:55.686Z,56.56
2022-08-25T21:20:56.026Z,59.14
2022-08-25T21:21:59.667Z,57.69
2022-08-25T21:22:55.640Z,58.01
2022-08-25T21:23:55.600Z,54.95
2022-08-25T21:24:55.599Z,57.85
2022-08-25T21:25:55.592Z,55.59
2022-08-25T21:26:55.572Z,56.24
2022-08-25T21:27:55.578Z,59.78
2022-08-25T21:28:55.591Z,58.65
2022-08-25T21:29:55.550Z,57.52
2022-08-25T21:30:56.126Z,55.27
2022-08-25T21:31:55.535Z,57.04
2022-08-25T21:32:55.538Z,58.65
2022-08-25T21:33:55.719Z,61.39
2022-08-25T21:34:55.506Z,56.56
2022-08-25T21:35:56.092Z,56.72
2022-08-25T21:36:55.457Z,56.56
2022-08-25T21:37:55.494Z,55.59
2022-08-25T21:38:55.420Z,58.81
2022-08-25T21:39:55.474Z,58.17
2022-08-25T21:40:55.405Z,58.81
2022-08-25T21:41:55.496Z,55.91
2022-08-25T21:42:55.410Z,57.20
2022-08-25T21:43:55.371Z,57.85
2022-08-25T21:44:55.342Z,58.81
2022-08-25T21:45:55.399Z,58.97
2022-08-25T21:46:55.348Z,56.40
2022-08-25T21:47:55.326Z,54.62
2022-08-25T21:48:55.322Z,59.62
2022-08-25T21:49:56.384Z,58.97
2022-08-25T21:50:55.293Z,58.17
2022-08-25T21:52:02.458Z,57.20
2022-08-25T21:52:57.275Z,61.55
2022-08-25T21:53:55.277Z,57.69
2022-08-25T21:54:55.231Z,58.01
2022-08-25T21:55:55.217Z,56.56
2022-08-25T21:56:55.242Z,58.81
2022-08-25T21:57:55.185Z,58.33
2022-08-25T21:58:55.215Z,55.27
2022-08-25T21:59:55.196Z,57.20
2022-08-25T22:00:55.190Z,57.52
2022-08-25T22:01:55.146Z,55.91
2022-08-25T22:02:55.257Z,59.46
2022-08-25T22:03:55.142Z,58.01
2022-08-25T22:04:55.138Z,57.20
2022-08-25T22:05:55.112Z,57.20
2022-08-25T22:06:55.870Z,58.97
2022-08-25T22:07:55.080Z,59.46
2022-08-25T22:08:55.093Z,59.78
2022-08-25T22:09:55.090Z,58.01
2022-08-25T22:10:55.044Z,61.07
2022-08-25T22:11:55.026Z,59.94
2022-08-25T22:12:55.018Z,58.17
2022-08-25T22:13:55.064Z,60.10
2022-08-25T22:14:55.024Z,58.49
2022-08-25T22:15:55.719Z,60.26
2022-08-25T22:16:55.130Z,58.97
2022-08-25T22:17:54.980Z,58.49
2022-08-25T22:18:54.996Z,57.04
2022-08-25T22:19:54.956Z,56.88
2022-08-25T22:20:54.911Z,59.62
2022-08-25T22:21:54.914Z,60.91
2022-08-25T22:22:54.909Z,57.69
2022-08-25T22:23:54.911Z,58.17
2022-08-25T22:24:54.897Z,58.33
2022-08-25T22:25:54.876Z,56.72
2022-08-25T22:26:54.847Z,59.78
2022-08-25T22:27:56.642Z,55.75
2022-08-25T22:28:54.833Z,57.52
2022-08-25T22:29:54.852Z,57.52
2022-08-25T22:30:54.873Z,58.17
2022-08-25T22:31:59.831Z,59.30
2022-08-25T22:32:54.836Z,56.72
2022-08-25T22:33:54.775Z,56.24
2022-08-25T22:34:54.786Z,57.20
2022-08-25T22:35:59.806Z,58.01
2022-08-25T22:36:54.743Z,59.78
2022-08-25T22:37:54.735Z,56.40
2022-08-25T22:38:54.721Z,58.33
2022-08-25T22:39:55.154Z,54.79
2022-08-25T22:40:54.694Z,56.88
2022-08-25T22:41:54.683Z,59.78